createdAt,value
2018-03-21T00:01:16.136Z,2.47
2018-03-21T00:03:44.194Z,3.20
2018-03-21T00:06:12.450Z,3.60
2018-03-21T00:08:43.972Z,2.87
2018-03-21T00:11:12.367Z,2.63
2018-03-21T00:13:40.637Z,3.20
2018-03-21T00:16:09.686Z,3.47
2018-03-21T00:18:38.543Z,3.73
2018-03-21T00:21:07.057Z,3.13
2018-03-21T00:23:34.538Z,3.37
2018-03-21T00:26:02.556Z,3.27
2018-03-21T00:28:32.167Z,3.23
2018-03-21T00:31:00.824Z,3.10
2018-03-21T00:33:28.310Z,4.40
2018-03-21T00:35:55.938Z,3.17
2018-03-21T00:38:25.224Z,3.77
2018-03-21T00:40:52.733Z,3.17
2018-03-21T00:43:21.864Z,3.23
2018-03-21T00:45:49.324Z,4.00
2018-03-21T00:48:17.861Z,5.27
2018-03-21T00:50:45.331Z,4.87
2018-03-21T00:53:13.623Z,5.60
2018-03-21T00:55:42.531Z,4.67
2018-03-21T00:58:11.160Z,3.53
2018-03-21T01:00:38.635Z,5.03
2018-03-21T01:03:06.132Z,3.73
2018-03-21T01:05:33.614Z,3.93
2018-03-21T01:08:02.662Z,3.70
2018-03-21T01:10:30.171Z,4.70
2018-03-21T01:12:59.359Z,4.93
2018-03-21T01:15:28.470Z,4.57
2018-03-21T01:17:58.200Z,4.13
2018-03-21T01:20:25.760Z,3.50
2018-03-21T01:22:53.536Z,3.30
2018-03-21T01:25:21.003Z,3.70
2018-03-21T01:27:48.755Z,4.00
2018-03-21T01:30:17.236Z,3.40
2018-03-21T01:32:44.714Z,3.97
2018-03-21T01:35:12.197Z,3.87
2018-03-21T01:37:40.443Z,4.37
2018-03-21T01:40:07.928Z,3.67
2018-03-21T01:42:36.649Z,4.17
2018-03-21T01:45:05.956Z,4.07
2018-03-21T01:47:34.330Z,4.10
2018-03-21T01:50:04.003Z,3.97
2018-03-21T01:52:32.205Z,3.40
2018-03-21T01:54:59.676Z,3.57
2018-03-21T01:57:27.167Z,4.40
2018-03-21T01:59:55.558Z,4.60
2018-03-21T02:02:25.031Z,4.63
2018-03-21T02:04:54.013Z,4.17
2018-03-21T02:07:23.058Z,3.57
2018-03-21T02:09:50.530Z,4.40
2018-03-21T02:12:18.925Z,4.53
2018-03-21T02:14:47.277Z,3.97
2018-03-21T02:17:15.800Z,4.20
2018-03-21T02:19:43.285Z,4.47
2018-03-21T02:22:11.576Z,4.77
2018-03-21T02:24:39.106Z,5.07
2018-03-21T02:27:06.608Z,3.70
2018-03-21T02:29:34.132Z,3.90
2018-03-21T02:32:02.438Z,4.23
2018-03-21T02:34:29.932Z,4.07
2018-03-21T02:36:57.493Z,4.03
2018-03-21T02:39:25.214Z,4.33
2018-03-21T02:41:52.717Z,4.20
2018-03-21T02:44:20.212Z,4.93
2018-03-21T02:46:47.703Z,3.87
2018-03-21T02:49:15.207Z,4.53
2018-03-21T02:51:44.061Z,4.07
2018-03-21T02:54:11.551Z,4.13
2018-03-21T02:56:39.770Z,4.60
2018-03-21T02:59:07.263Z,4.30
2018-03-21T03:01:34.801Z,4.23
2018-03-21T03:04:03.074Z,4.07
2018-03-21T03:06:30.602Z,4.60
2018-03-21T03:08:58.184Z,4.27
2018-03-21T03:11:25.711Z,4.77
2018-03-21T03:13:53.222Z,4.27
2018-03-21T03:16:20.704Z,4.00
2018-03-21T03:18:49.320Z,4.60
2018-03-21T03:21:16.843Z,3.47
2018-03-21T03:23:45.070Z,4.33
2018-03-21T03:26:12.613Z,4.37
2018-03-21T03:28:40.220Z,4.50
2018-03-21T03:31:07.931Z,4.97
2018-03-21T03:33:35.700Z,4.70
2018-03-21T03:36:03.505Z,4.70
2018-03-21T03:38:31.262Z,4.43
2018-03-21T03:40:58.951Z,5.00
2018-03-21T03:43:28.033Z,4.00
2018-03-21T03:45:56.557Z,4.20
2018-03-21T03:48:24.422Z,4.60
2018-03-21T03:50:51.971Z,4.37
2018-03-21T03:53:19.549Z,4.50
2018-03-21T03:55:47.295Z,5.10
2018-03-21T03:58:14.913Z,4.17
2018-03-21T04:00:43.435Z,4.90
2018-03-21T04:03:11.044Z,4.47
2018-03-21T04:05:38.621Z,5.33
2018-03-21T04:08:07.211Z,5.83
2018-03-21T04:10:34.839Z,4.90
2018-03-21T04:13:02.595Z,4.90
2018-03-21T04:15:30.287Z,4.37
2018-03-21T04:17:58.662Z,4.80
2018-03-21T04:20:27.184Z,4.20
2018-03-21T04:22:55.036Z,5.10
2018-03-21T04:25:22.903Z,5.10
2018-03-21T04:27:50.577Z,5.27
2018-03-21T04:30:18.437Z,5.57
2018-03-21T04:32:46.397Z,5.50
2018-03-21T04:35:14.880Z,5.30
2018-03-21T04:37:42.760Z,6.57
2018-03-21T04:40:10.510Z,5.50
2018-03-21T04:42:38.008Z,4.57
2018-03-21T04:45:05.551Z,5.77
2018-03-21T04:47:33.186Z,5.33
2018-03-21T04:50:00.706Z,5.20
2018-03-21T04:52:29.216Z,5.73
2018-03-21T04:54:56.687Z,5.80
2018-03-21T04:57:24.297Z,5.20
2018-03-21T04:59:52.601Z,5.53
2018-03-21T05:02:20.107Z,5.57
2018-03-21T05:04:47.694Z,5.80
2018-03-21T05:07:15.964Z,5.37
2018-03-21T05:09:44.293Z,5.33
2018-03-21T05:12:11.854Z,5.60
2018-03-21T05:14:39.415Z,5.07
2018-03-21T05:17:07.232Z,6.30
2018-03-21T05:19:34.755Z,5.70
2018-03-21T05:22:02.271Z,5.03
2018-03-21T05:24:29.864Z,5.63
2018-03-21T05:26:57.375Z,6.00
2018-03-21T05:29:25.256Z,9.20
2018-03-21T05:31:52.914Z,7.40
2018-03-21T05:34:20.465Z,5.33
2018-03-21T05:36:47.953Z,5.67
2018-03-21T05:39:15.571Z,6.40
2018-03-21T05:41:43.165Z,6.40
2018-03-21T05:44:10.682Z,7.60
2018-03-21T05:46:38.162Z,7.13
2018-03-21T05:49:05.658Z,6.20
2018-03-21T05:51:33.185Z,6.03
2018-03-21T05:54:01.916Z,6.77
2018-03-21T05:56:30.168Z,6.47
2018-03-21T05:58:58.398Z,6.17
2018-03-21T06:01:25.945Z,5.97
2018-03-21T06:03:53.430Z,7.87
2018-03-21T06:06:24.508Z,5.97
2018-03-21T06:08:52.240Z,6.23
2018-03-21T06:11:19.763Z,6.10
2018-03-21T06:13:47.332Z,5.83
2018-03-21T06:16:14.816Z,4.83
2018-03-21T06:18:42.316Z,4.70
2018-03-21T06:21:10.159Z,5.70
2018-03-21T06:23:38.407Z,4.67
2018-03-21T06:26:05.983Z,4.27
2018-03-21T06:28:33.456Z,5.87
2018-03-21T06:31:00.964Z,5.27
2018-03-21T06:33:28.450Z,4.73
2018-03-21T06:35:55.939Z,4.97
2018-03-21T06:38:24.155Z,5.10
2018-03-21T06:40:53.189Z,4.30
2018-03-21T06:43:20.650Z,6.00
2018-03-21T06:45:48.893Z,6.40
2018-03-21T06:48:16.386Z,6.37
2018-03-21T06:50:44.642Z,6.90
2018-03-21T06:53:12.153Z,7.80
2018-03-21T06:55:39.658Z,9.90
2018-03-21T06:58:07.149Z,11.50
2018-03-21T07:00:34.669Z,12.43
2018-03-21T07:03:02.255Z,14.27
2018-03-21T07:05:29.795Z,17.30
2018-03-21T07:07:58.074Z,18.17
2018-03-21T07:10:26.429Z,19.27
2018-03-21T07:12:53.923Z,21.80
2018-03-21T07:15:33.520Z,22.10
2018-03-21T07:18:01.018Z,24.57
2018-03-21T07:20:28.548Z,27.17
2018-03-21T07:22:56.007Z,28.43
2018-03-21T07:25:23.494Z,33.80
2018-03-21T07:27:50.974Z,35.50
2018-03-21T07:30:18.505Z,39.00
2018-03-21T07:32:45.995Z,38.30
2018-03-21T07:35:13.487Z,41.07
2018-03-21T07:37:40.979Z,40.80
2018-03-21T07:54:30.791Z,45.67
2018-03-21T07:56:58.282Z,46.43
2018-03-21T07:59:25.774Z,47.67
2018-03-21T08:01:53.299Z,47.90
2018-03-21T08:04:20.783Z,47.93
2018-03-21T08:06:48.260Z,38.00
2018-03-21T08:09:15.737Z,34.67
2018-03-21T08:11:44.004Z,33.13
2018-03-21T08:14:11.477Z,34.50
2018-03-21T08:16:39.805Z,35.83
2018-03-21T08:19:08.102Z,36.57
2018-03-21T08:21:35.614Z,35.90
2018-03-21T08:24:03.080Z,37.13
2018-03-21T08:26:30.581Z,35.27
2018-03-21T08:28:58.229Z,36.40
2018-03-21T08:31:25.947Z,36.10
2018-03-21T08:33:54.290Z,39.60
2018-03-21T08:36:22.566Z,41.37
2018-03-21T08:38:50.836Z,36.00
2018-03-21T08:41:19.134Z,42.90
2018-03-21T08:43:47.433Z,40.70
2018-03-21T08:46:14.940Z,38.37
2018-03-21T08:48:43.200Z,38.03
2018-03-21T08:51:10.680Z,40.73
2018-03-21T08:53:38.994Z,39.53
2018-03-21T08:56:06.495Z,34.80
2018-03-21T08:58:33.982Z,33.83
2018-03-21T09:01:02.238Z,33.00
2018-03-21T09:03:30.504Z,30.77
2018-03-21T09:05:58.099Z,26.97
2018-03-21T09:08:25.657Z,26.07
2018-03-21T09:10:53.152Z,24.43
2018-03-21T09:13:20.761Z,20.73
2018-03-21T09:15:49.058Z,20.40
2018-03-21T09:18:16.946Z,18.27
2018-03-21T09:20:44.416Z,19.33
2018-03-21T09:23:11.915Z,18.37
2018-03-21T09:25:40.248Z,21.10
2018-03-21T09:28:07.714Z,21.03
2018-03-21T09:30:35.272Z,19.10
2018-03-21T09:33:02.966Z,19.90
2018-03-21T09:35:31.375Z,19.60
2018-03-21T09:38:01.001Z,18.80
2018-03-21T09:40:28.691Z,18.43
2018-03-21T09:42:56.235Z,18.20
2018-03-21T09:45:23.775Z,18.23
2018-03-21T09:47:51.270Z,18.20
2018-03-21T09:50:19.570Z,16.93
2018-03-21T09:52:47.089Z,17.17
2018-03-21T09:55:14.704Z,16.40
2018-03-21T09:57:42.326Z,16.03
2018-03-21T10:00:10.835Z,16.73
2018-03-21T10:02:38.808Z,17.33
2018-03-21T10:05:06.493Z,16.33
2018-03-21T10:07:34.339Z,18.00
2018-03-21T10:10:02.089Z,16.97
2018-03-21T10:12:29.864Z,16.60
2018-03-21T10:14:57.665Z,15.53
2018-03-21T10:17:25.493Z,17.07
2018-03-21T10:19:53.124Z,15.57
2018-03-21T10:22:21.704Z,16.77
2018-03-21T10:24:49.420Z,16.90
2018-03-21T10:27:17.322Z,15.57
2018-03-21T10:29:46.085Z,16.67
2018-03-21T10:32:14.208Z,15.60
2018-03-21T10:34:41.847Z,15.53
2018-03-21T10:37:10.238Z,19.60
2018-03-21T10:39:38.724Z,18.43
2018-03-21T10:42:06.641Z,20.27
2018-03-21T10:44:34.303Z,20.77
2018-03-21T10:47:02.003Z,21.27
2018-03-21T10:49:30.010Z,22.57
2018-03-21T10:51:57.874Z,22.13
2018-03-21T10:54:25.455Z,22.40
2018-03-21T10:56:53.235Z,22.50
2018-03-21T10:59:21.898Z,20.97
2018-03-21T11:01:54.984Z,21.37
2018-03-21T11:04:22.626Z,20.97
2018-03-21T11:06:50.367Z,20.73
2018-03-21T11:09:18.636Z,21.30
2018-03-21T11:11:46.549Z,19.23
2018-03-21T11:14:14.199Z,20.53
2018-03-21T11:16:42.507Z,20.97
2018-03-21T11:19:11.132Z,21.47
2018-03-21T11:21:38.728Z,19.20
2018-03-21T11:24:07.110Z,18.70
2018-03-21T11:26:34.710Z,17.30
2018-03-21T11:29:02.253Z,23.77
2018-03-21T11:31:30.841Z,16.03
2018-03-21T11:33:58.392Z,15.37
2018-03-21T11:36:27.104Z,15.30
2018-03-21T11:38:54.976Z,14.40
2018-03-21T11:41:22.876Z,16.13
2018-03-21T11:43:50.756Z,13.40
2018-03-21T11:46:18.570Z,15.17
2018-03-21T11:48:46.143Z,15.07
2018-03-21T11:51:13.812Z,14.97
2018-03-21T11:53:41.623Z,14.70
2018-03-21T11:56:09.200Z,14.70
2018-03-21T11:58:36.811Z,14.20
2018-03-21T12:01:05.250Z,14.37
2018-03-21T12:03:33.032Z,13.87
2018-03-21T12:06:00.680Z,13.20
2018-03-21T12:08:28.592Z,13.43
2018-03-21T12:10:56.370Z,11.73
2018-03-21T12:13:24.996Z,12.60
2018-03-21T12:15:53.300Z,12.63
2018-03-21T12:28:06.774Z,12.23
2018-03-21T12:30:34.601Z,13.03
2018-03-21T12:33:02.464Z,11.53
2018-03-21T12:35:30.345Z,12.57
2018-03-21T12:38:01.034Z,12.03
2018-03-21T12:40:29.598Z,9.70
2018-03-21T12:42:58.123Z,10.53
2018-03-21T12:45:25.751Z,10.57
2018-03-21T12:47:53.394Z,10.20
2018-03-21T12:50:20.930Z,9.20
2018-03-21T12:52:48.514Z,9.87
2018-03-21T12:55:16.958Z,10.17
2018-03-21T12:57:44.906Z,10.87
2018-03-21T13:00:12.553Z,11.37
2018-03-21T13:02:40.891Z,11.27
2018-03-21T13:05:09.324Z,11.37
2018-03-21T13:07:36.962Z,10.53
2018-03-21T13:10:04.722Z,11.57
2018-03-21T13:12:33.119Z,11.13
2018-03-21T13:15:00.738Z,10.73
2018-03-21T13:17:28.925Z,11.43
2018-03-21T13:19:57.684Z,11.27
2018-03-21T13:22:25.191Z,10.50
2018-03-21T13:24:53.527Z,9.73
2018-03-21T13:27:21.342Z,11.60
2018-03-21T13:29:49.544Z,11.23
2018-03-21T13:32:17.403Z,11.53
2018-03-21T13:34:45.038Z,11.87
2018-03-21T13:37:12.943Z,11.60
2018-03-21T13:39:41.410Z,11.00
2018-03-21T13:42:09.103Z,14.53
2018-03-21T13:44:37.657Z,12.47
2018-03-21T13:47:06.239Z,11.57
2018-03-21T13:49:33.726Z,12.40
2018-03-21T13:52:02.106Z,13.13
2018-03-21T13:54:29.598Z,11.80
2018-03-21T13:56:57.403Z,12.23
2018-03-21T13:59:25.117Z,11.87
2018-03-21T14:01:52.632Z,12.03
2018-03-21T14:04:20.119Z,12.27
2018-03-21T14:06:47.594Z,12.23
2018-03-21T14:09:15.079Z,12.43
2018-03-21T14:11:42.578Z,13.07
2018-03-21T14:14:10.823Z,12.43
2018-03-21T14:16:38.435Z,11.33
2018-03-21T14:19:05.936Z,12.13
2018-03-21T14:21:33.524Z,12.83
2018-03-21T14:24:01.973Z,12.37
2018-03-21T14:26:29.581Z,12.23
2018-03-21T14:28:57.055Z,11.73
2018-03-21T14:31:24.549Z,13.17
2018-03-21T14:33:52.140Z,12.93
2018-03-21T14:36:19.618Z,11.50
2018-03-21T14:38:47.126Z,12.27
2018-03-21T14:41:14.691Z,13.43
2018-03-21T14:43:43.009Z,11.53
2018-03-21T14:46:10.483Z,12.07
2018-03-21T14:48:38.080Z,11.80
2018-03-21T14:51:06.420Z,11.77
2018-03-21T14:53:33.894Z,10.30
2018-03-21T14:56:02.145Z,10.73
2018-03-21T14:58:29.625Z,10.93
2018-03-21T15:00:57.241Z,11.50
2018-03-21T15:03:24.737Z,11.07
2018-03-21T15:05:52.232Z,10.63
2018-03-21T15:08:20.528Z,9.63
2018-03-21T15:10:48.410Z,9.87
2018-03-21T15:13:16.042Z,9.23
2018-03-21T15:15:43.534Z,9.73
2018-03-21T15:18:11.089Z,11.20
2018-03-21T15:20:38.590Z,10.53
2018-03-21T15:23:06.835Z,11.60
2018-03-21T15:25:34.624Z,9.67
2018-03-21T15:28:02.888Z,9.83
2018-03-21T15:30:31.003Z,9.90
2018-03-21T15:32:58.530Z,9.30
2018-03-21T15:35:26.849Z,9.33
2018-03-21T15:37:54.710Z,8.47
2018-03-21T15:40:24.058Z,8.03
2018-03-21T15:42:51.552Z,8.43
2018-03-21T15:45:19.422Z,9.53
2018-03-21T15:47:46.905Z,8.20
2018-03-21T15:50:14.436Z,8.17
2018-03-21T15:52:42.844Z,8.10
2018-03-21T15:55:10.334Z,8.07
2018-03-21T15:57:38.625Z,8.50
2018-03-21T16:00:06.172Z,9.10
2018-03-21T16:02:34.588Z,8.27
2018-03-21T16:05:02.252Z,7.33
2018-03-21T16:07:29.839Z,7.73
2018-03-21T16:09:57.459Z,6.70
2018-03-21T16:12:24.973Z,7.47
2018-03-21T16:14:52.500Z,6.20
2018-03-21T16:17:20.095Z,6.77
2018-03-21T16:19:48.360Z,6.80
2018-03-21T16:22:16.834Z,5.63
2018-03-21T16:24:44.406Z,6.83
2018-03-21T16:27:12.672Z,8.17
2018-03-21T16:29:40.158Z,7.60
2018-03-21T16:32:08.550Z,6.60
2018-03-21T16:34:36.078Z,6.17
2018-03-21T16:37:04.395Z,6.40
2018-03-21T16:39:31.874Z,7.70
2018-03-21T16:41:59.377Z,7.70
2018-03-21T16:44:28.860Z,6.77
2018-03-21T16:46:56.341Z,7.30
2018-03-21T16:49:23.832Z,6.67
2018-03-21T16:51:51.343Z,7.33
2018-03-21T16:54:18.888Z,7.67
2018-03-21T16:56:47.155Z,6.93
2018-03-21T16:59:14.661Z,6.53
2018-03-21T17:01:42.188Z,6.50
2018-03-21T17:04:10.484Z,6.43
2018-03-21T17:06:37.961Z,6.93
2018-03-21T17:09:05.504Z,6.10
2018-03-21T17:11:33.021Z,6.90
2018-03-21T17:14:00.538Z,6.77
2018-03-21T17:16:28.034Z,8.50
2018-03-21T17:18:55.530Z,7.20
2018-03-21T17:21:23.030Z,7.03
2018-03-21T17:23:50.782Z,7.20
2018-03-21T17:26:18.270Z,7.70
2018-03-21T17:28:45.811Z,8.00
2018-03-21T17:31:13.362Z,7.33
2018-03-21T17:33:40.893Z,8.20
2018-03-21T17:36:08.375Z,7.50
2018-03-21T17:38:35.992Z,7.47
2018-03-21T17:52:30.042Z,7.73
2018-03-21T17:54:58.331Z,7.30
2018-03-21T17:57:25.808Z,6.63
2018-03-21T17:59:53.272Z,8.83
2018-03-21T18:02:20.782Z,10.83
2018-03-21T18:04:49.777Z,9.60
2018-03-21T18:07:18.056Z,9.90
2018-03-21T18:09:45.554Z,12.90
2018-03-21T18:12:13.139Z,13.10
2018-03-21T18:14:40.622Z,12.33
2018-03-21T18:17:08.901Z,16.00
2018-03-21T18:19:37.471Z,9.90
2018-03-21T18:22:05.752Z,10.70
2018-03-21T18:24:34.024Z,9.83
2018-03-21T18:27:01.505Z,12.73
2018-03-21T18:29:29.001Z,11.83
2018-03-21T18:31:56.456Z,12.67
2018-03-21T18:34:23.961Z,9.83
2018-03-21T18:36:51.495Z,10.23
2018-03-21T18:39:19.009Z,8.60
2018-03-21T18:41:46.527Z,10.07
2018-03-21T18:44:14.808Z,8.27
2018-03-21T18:46:43.067Z,8.53
2018-03-21T18:49:10.598Z,9.43
2018-03-21T18:51:38.084Z,10.73
2018-03-21T18:54:06.339Z,9.60
2018-03-21T18:56:33.846Z,10.53
2018-03-21T18:59:01.398Z,11.07
2018-03-21T19:01:28.872Z,10.00
2018-03-21T19:03:56.368Z,9.77
2018-03-21T19:06:23.863Z,9.37
2018-03-21T19:08:51.480Z,9.10
2018-03-21T19:11:18.964Z,9.47
2018-03-21T19:13:47.231Z,10.60
2018-03-21T19:16:15.519Z,11.90
2018-03-21T19:18:43.952Z,8.13
2018-03-21T19:21:11.465Z,8.40
2018-03-21T19:23:38.962Z,9.27
2018-03-21T19:26:06.460Z,10.23
2018-03-21T19:28:34.743Z,10.60
2018-03-21T19:31:02.535Z,10.90
2018-03-21T19:33:30.240Z,10.57
2018-03-21T19:35:57.921Z,11.63
2018-03-21T19:38:26.247Z,10.57
2018-03-21T19:40:53.891Z,10.13
2018-03-21T19:43:21.434Z,10.90
2018-03-21T19:45:48.945Z,11.27
2018-03-21T19:48:16.449Z,11.53
2018-03-21T19:50:43.955Z,11.40
2018-03-21T19:53:11.467Z,11.50
2018-03-21T19:55:38.966Z,11.73
2018-03-21T19:58:07.096Z,11.60
2018-03-21T20:00:34.970Z,11.17
2018-03-21T20:03:02.472Z,12.23
2018-03-21T20:05:29.993Z,11.60
2018-03-21T20:07:57.511Z,11.47
2018-03-21T20:10:25.820Z,10.70
2018-03-21T20:12:53.304Z,12.27
2018-03-21T20:15:20.814Z,11.50
2018-03-21T20:17:48.349Z,11.57
2018-03-21T20:20:16.588Z,12.87
2018-03-21T20:22:44.088Z,10.77
2018-03-21T20:25:12.334Z,12.80
2018-03-21T20:27:39.837Z,12.90
2018-03-21T20:43:07.377Z,13.17
2018-03-21T20:45:34.920Z,12.97
2018-03-21T20:48:03.318Z,13.93
2018-03-21T20:50:30.841Z,13.17
2018-03-21T20:52:59.077Z,14.60
2018-03-21T20:55:26.578Z,12.93
2018-03-21T20:57:54.065Z,13.00
2018-03-21T21:00:21.575Z,13.30
2018-03-21T21:02:49.880Z,13.07
2018-03-21T21:05:17.381Z,12.20
2018-03-21T21:07:44.974Z,14.60
2018-03-21T21:10:13.218Z,13.33
2018-03-21T21:12:41.532Z,14.53
2018-03-21T21:15:08.999Z,12.37
2018-03-21T21:17:37.029Z,13.90
2018-03-21T21:20:04.615Z,13.33
2018-03-21T21:22:32.894Z,14.37
2018-03-21T21:25:01.136Z,15.03
2018-03-21T21:27:28.639Z,14.73
2018-03-21T21:29:56.156Z,14.73
2018-03-21T21:32:23.648Z,13.50
2018-03-21T21:34:51.161Z,15.67
2018-03-21T21:37:19.421Z,14.77
2018-03-21T21:39:46.917Z,13.93
2018-03-21T21:42:15.179Z,15.17
2018-03-21T21:44:43.431Z,13.97
2018-03-21T21:47:10.927Z,14.23
2018-03-21T21:49:39.182Z,15.27
2018-03-21T21:52:06.675Z,15.10
2018-03-21T21:54:34.214Z,14.30
2018-03-21T21:57:02.566Z,13.27
2018-03-21T21:59:30.479Z,14.37
2018-03-21T22:01:58.052Z,14.33
2018-03-21T22:04:25.548Z,15.50
2018-03-21T22:06:53.062Z,14.80
2018-03-21T22:09:20.971Z,14.30
2018-03-21T22:11:48.518Z,15.43
2018-03-21T22:14:16.212Z,14.87
2018-03-21T22:16:44.469Z,14.70
2018-03-21T22:19:12.132Z,14.27
2018-03-21T22:21:39.750Z,15.80
2018-03-21T22:24:07.350Z,14.80
2018-03-21T22:26:34.883Z,15.13
2018-03-21T22:29:02.449Z,14.50
2018-03-21T22:31:30.012Z,16.07
2018-03-21T22:33:57.579Z,15.17
2018-03-21T22:36:25.092Z,14.77
2018-03-21T22:38:52.591Z,16.53
2018-03-21T22:41:20.210Z,15.80
2018-03-21T22:43:47.717Z,15.90
2018-03-21T22:46:16.103Z,15.10
2018-03-21T22:48:44.485Z,14.83
2018-03-21T22:51:12.779Z,16.50
2018-03-21T22:53:40.310Z,15.07
2018-03-21T22:56:08.638Z,16.03
2018-03-21T22:58:36.120Z,16.23
2018-03-21T23:01:03.789Z,15.80
2018-03-21T23:03:31.568Z,13.80
2018-03-21T23:05:59.967Z,15.83
2018-03-21T23:08:27.564Z,15.97
2018-03-21T23:10:55.123Z,15.13
2018-03-21T23:13:22.681Z,15.90
2018-03-21T23:15:50.291Z,14.10
2018-03-21T23:18:20.854Z,15.13
2018-03-21T23:20:48.506Z,14.97
2018-03-21T23:23:16.043Z,16.00
2018-03-21T23:25:43.569Z,16.37
2018-03-21T23:28:12.812Z,16.00
2018-03-21T23:30:40.420Z,15.80
2018-03-21T23:33:09.228Z,16.27
2018-03-21T23:35:37.664Z,17.13
2018-03-21T23:38:05.397Z,15.53
2018-03-21T23:40:33.725Z,15.23
2018-03-21T23:43:01.252Z,16.00
2018-03-21T23:45:28.983Z,15.87
2018-03-21T23:47:56.632Z,14.93
2018-03-21T23:50:24.319Z,14.90
2018-03-21T23:52:51.951Z,16.17
2018-03-21T23:55:19.508Z,15.40
2018-03-21T23:57:47.126Z,16.37
